Easton, United Kingdom
Current Conditions -  °F | °C
As of 11:50 AM on Thursday 30 Oct 2014 (Local Time) from EGHH Reporting Station
Haze Haze  
Wind Chill: 64°   Ceiling: 1300
Heat Index: 64°   Visibility: 3mi
Dew Point: 61°   Wind: 5mph
Humidity: 88%   Direction: 200°SSW
Pressure: 30.06"   Gusts: NA
Location:  50.53°N, 2.45°W
Report Text: EGHH 301150Z 20004KT 5000 HZ FEW008 BKN013 18/16 Q1018
Loading
Personal Weather Stations






























Interactive Weather Map
Tropical Storm Tracking
New forecast layout! Learn more

10-Day Weather Forecast

Advertisements
Track Severe Weather on mobile